Manilla, Indiana
Current Conditions -  °F | °C
As of 10:53 AM on Thursday 18 Dec 2014 (Local Time) from KGEZ Reporting Station
Overcast Overcast  
Wind Chill: -2°   Ceiling: 1700
Heat Index: -2°   Visibility: 10mi
Dew Point: -7°   Wind: 0mph
Humidity: 69%   Direction: NA
Pressure: 30.28"   Gusts: NA
Location:  39.57°N, 85.62°W
Report Text: KGEZ 181553Z AUTO 00000KT 10SM OVC017 M02/M07 A3028 RMK AO2 SLP263 T10221072
Loading
Personal Weather Stations






























Interactive Weather Map New forecast layout! Learn more

10-Day Weather Forecast

Advertisements
Track Severe Weather on mobile